Time;durP1;ratioP1;P1;durP2;ratioP2;P2;SDS_P1;SDS_P2;PMS_P1;PMS_P2;Temp;Humidity;BMP_temperature;BMP_pressure;BME280_temperature;BME280_humidity;BME280_pressure;Samples;Min_cycle;Max_cycle;Signal;HPM_P1;HPM_P2
2023/09/02 00:02:02;;;;;;;27.67;21.77;;;18.10;95.10;;;;;;5049182;28;20112;-84
2023/09/02 00:04:28;;;;;;;23.33;18.23;;;18.00;95.20;;;;;;5050696;28;20104;-84
2023/09/02 00:06:54;;;;;;;27.15;21.75;;;18.10;95.20;;;;;;5035046;28;20025;-84
2023/09/02 00:09:20;;;;;;;26.63;20.75;;;18.00;95.20;;;;;;5052387;28;20040;-86
2023/09/02 00:11:46;;;;;;;26.65;19.88;;;18.10;95.50;;;;;;5053761;28;20025;-84
2023/09/02 00:14:12;;;;;;;26.75;21.83;;;18.00;95.30;;;;;;5050794;28;20086;-85
2023/09/02 00:16:37;;;;;;;28.17;22.27;;;18.00;95.40;;;;;;5049809;28;20438;-85
2023/09/02 00:19:04;;;;;;;30.05;23.02;;;18.00;95.40;;;;;;5049922;28;20064;-84
2023/09/02 00:21:30;;;;;;;30.00;24.15;;;17.90;95.50;;;;;;5031188;28;20021;-84
2023/09/02 00:24:05;;;;;;;28.98;22.98;;;17.90;95.60;;;;;;5050594;28;20037;-85
2023/09/02 00:26:31;;;;;;;24.52;19.35;;;17.90;95.80;;;;;;5044943;28;20029;-85
2023/09/02 00:28:57;;;;;;;27.52;20.63;;;17.90;95.80;;;;;;5060948;28;20029;-84
2023/09/02 00:31:23;;;;;;;22.85;18.20;;;17.80;95.90;;;;;;5055185;28;20070;-85
2023/09/02 00:33:49;;;;;;;26.98;20.27;;;17.80;95.90;;;;;;5034029;28;20029;-85
2023/09/02 00:36:14;;;;;;;25.70;19.05;;;17.80;95.80;;;;;;5051410;28;20036;-85
2023/09/02 00:38:40;;;;;;;24.73;19.35;;;17.80;95.80;;;;;;5050957;28;20024;-84
2023/09/02 00:41:10;;;;;;;23.77;17.67;;;17.70;95.90;;;;;;5049934;28;20502;-84
2023/09/02 00:43:37;;;;;;;28.13;20.77;;;17.70;95.90;;;;;;5050840;28;20056;-85
2023/09/02 00:46:03;;;;;;;27.17;20.90;;;17.70;95.90;;;;;;5049958;28;20495;-85
2023/09/02 00:48:28;;;;;;;25.95;19.48;;;17.70;95.90;;;;;;5051893;28;20025;-85
2023/09/02 00:50:54;;;;;;;24.10;18.00;;;17.70;95.90;;;;;;5036987;28;20390;-85
2023/09/02 00:53:20;;;;;;;23.55;17.13;;;17.70;95.90;;;;;;5050990;28;20025;-85
2023/09/02 00:55:47;;;;;;;17.80;14.32;;;17.70;95.80;;;;;;5051088;28;20025;-85
2023/09/02 00:58:12;;;;;;;23.90;18.55;;;17.70;95.70;;;;;;5049375;28;20064;-86
2023/09/02 01:00:38;;;;;;;22.83;16.63;;;17.70;95.60;;;;;;5051364;28;20467;-85
2023/09/02 01:03:04;;;;;;;22.13;17.30;;;17.70;95.60;;;;;;5030736;28;20033;-85
2023/09/02 01:05:30;;;;;;;18.40;15.18;;;17.70;95.50;;;;;;5051995;28;20380;-85
2023/09/02 01:07:56;;;;;;;21.95;16.42;;;17.70;95.50;;;;;;5051016;28;20029;-85
2023/09/02 01:10:23;;;;;;;21.35;17.05;;;17.70;95.50;;;;;;5051239;28;20464;-85
2023/09/02 01:12:50;;;;;;;21.10;16.58;;;17.70;95.50;;;;;;5049219;28;20040;-85
2023/09/02 01:15:16;;;;;;;22.95;18.73;;;17.60;95.60;;;;;;5050593;28;20128;-85
2023/09/02 01:17:41;;;;;;;18.80;14.70;;;17.60;95.70;;;;;;5047177;28;20471;-85
2023/09/02 01:20:11;;;;;;;16.38;13.55;;;17.60;95.70;;;;;;5050313;28;20060;-84
2023/09/02 01:23:10;;;;;;;18.88;14.15;;;17.60;95.70;;;;;;5049318;28;20503;-84
2023/09/02 01:26:11;;;;;;;22.48;16.25;;;17.60;95.60;;;;;;5048244;28;20507;-84
2023/09/02 01:28:40;;;;;;;21.38;16.20;;;17.60;95.60;;;;;;5008613;28;20047;-85
2023/09/02 01:31:09;;;;;;;23.15;17.55;;;17.60;95.60;;;;;;5050251;28;20028;-85
2023/09/02 01:33:36;;;;;;;23.83;17.17;;;17.60;95.60;;;;;;5049570;28;20471;-86
2023/09/02 01:36:02;;;;;;;25.65;17.90;;;17.60;95.60;;;;;;5048686;28;20387;-85
2023/09/02 01:38:31;;;;;;;20.92;15.38;;;17.60;95.60;;;;;;5049761;28;20061;-85
2023/09/02 01:40:58;;;;;;;20.73;16.17;;;17.70;95.50;;;;;;5049662;28;20021;-85
2023/09/02 01:43:24;;;;;;;21.92;17.55;;;17.70;95.40;;;;;;5050729;28;20319;-86
2023/09/02 01:45:51;;;;;;;26.55;19.02;;;17.70;95.40;;;;;;5051991;28;20391;-86
2023/09/02 01:48:18;;;;;;;22.70;17.60;;;17.70;95.40;;;;;;5050708;28;20017;-85
2023/09/02 01:50:44;;;;;;;23.10;17.08;;;17.70;95.50;;;;;;5050542;28;20024;-84
2023/09/02 01:53:10;;;;;;;19.85;16.15;;;17.70;95.60;;;;;;5051964;28;21549;-84
2023/09/02 01:55:36;;;;;;;22.13;16.73;;;17.80;95.60;;;;;;5035503;28;20412;-84
2023/09/02 01:58:02;;;;;;;27.92;19.58;;;17.80;95.50;;;;;;5042909;28;20032;-86
2023/09/02 02:00:28;;;;;;;23.52;17.42;;;17.70;95.70;;;;;;5046259;28;20021;-86
2023/09/02 02:02:54;;;;;;;25.05;17.92;;;17.80;95.80;;;;;;5049909;28;20053;-85
2023/09/02 02:05:31;;;;;;;21.83;16.20;;;17.80;95.80;;;;;;5048761;28;20025;-85
2023/09/02 02:08:01;;;;;;;21.23;15.52;;;17.80;95.70;;;;;;5049900;28;20025;-84
2023/09/02 02:10:31;;;;;;;22.13;16.23;;;17.90;95.60;;;;;;5049965;28;20056;-85
2023/09/02 02:13:01;;;;;;;20.27;15.18;;;17.90;95.50;;;;;;5047204;28;20035;-85
2023/09/02 02:15:27;;;;;;;18.63;14.07;;;17.90;95.50;;;;;;5041439;28;20453;-85
2023/09/02 02:17:52;;;;;;;22.77;16.58;;;17.90;95.50;;;;;;5031233;28;20083;-85
2023/09/02 02:20:19;;;;;;;24.42;16.92;;;17.90;95.40;;;;;;5032616;28;20054;-85
2023/09/02 02:22:44;;;;;;;21.52;15.02;;;17.90;95.50;;;;;;5049149;28;20029;-85
2023/09/02 02:25:10;;;;;;;26.25;18.38;;;17.90;95.50;;;;;;5052383;28;20387;-85
2023/09/02 02:27:36;;;;;;;23.38;16.02;;;17.90;95.50;;;;;;5049830;28;20482;-85
2023/09/02 02:30:03;;;;;;;19.50;14.32;;;18.00;95.50;;;;;;5053869;28;20021;-84
2023/09/02 02:32:29;;;;;;;23.92;16.90;;;18.00;95.40;;;;;;5033763;28;20472;-85
2023/09/02 02:34:54;;;;;;;23.10;16.27;;;18.00;95.30;;;;;;5049470;28;20017;-85
2023/09/02 02:37:20;;;;;;;22.30;15.77;;;18.00;95.30;;;;;;5050430;28;20045;-84
2023/09/02 02:39:46;;;;;;;31.13;16.48;;;18.00;95.30;;;;;;5037711;28;20025;-85
2023/09/02 02:42:14;;;;;;;27.77;17.05;;;18.00;95.40;;;;;;5049419;28;20496;-85
2023/09/02 02:44:40;;;;;;;29.95;18.63;;;18.00;95.50;;;;;;5051963;28;20043;-85
2023/09/02 02:47:06;;;;;;;25.67;15.68;;;18.00;95.40;;;;;;5050670;28;20021;-85
2023/09/02 02:49:31;;;;;;;25.30;16.23;;;18.00;95.50;;;;;;5052304;28;20102;-84
2023/09/02 02:51:57;;;;;;;26.98;16.27;;;18.10;95.50;;;;;;5048690;28;20121;-85
2023/09/02 02:54:23;;;;;;;31.17;18.08;;;18.10;95.40;;;;;;5052733;28;20031;-84
2023/09/02 02:56:48;;;;;;;31.90;19.05;;;18.10;95.40;;;;;;5049227;28;20115;-85
2023/09/02 02:59:14;;;;;;;25.25;16.63;;;18.00;95.50;;;;;;5034198;28;20012;-85
2023/09/02 03:01:40;;;;;;;34.63;17.33;;;18.10;95.60;;;;;;5026192;28;20037;-85
2023/09/02 03:04:06;;;;;;;34.22;17.40;;;18.00;95.50;;;;;;5050220;28;20017;-84
2023/09/02 03:06:32;;;;;;;24.98;14.80;;;18.10;95.50;;;;;;5047493;28;20092;-84
2023/09/02 03:08:57;;;;;;;31.02;16.48;;;18.10;95.40;;;;;;5048737;28;20123;-84
2023/09/02 03:11:23;;;;;;;26.73;14.88;;;18.00;95.50;;;;;;5048601;28;20031;-84
2023/09/02 03:13:48;;;;;;;42.97;16.48;;;18.10;95.50;;;;;;5048234;28;20029;-83
2023/09/02 03:16:14;;;;;;;52.45;15.00;;;18.00;95.50;;;;;;5048735;28;20029;-84
2023/09/02 03:18:41;;;;;;;37.40;16.15;;;18.00;95.50;;;;;;5048742;28;20039;-84
2023/09/02 03:21:07;;;;;;;56.92;17.10;;;17.90;95.60;;;;;;5037347;28;20048;-85
2023/09/02 03:23:34;;;;;;;40.33;15.95;;;17.90;95.70;;;;;;5048340;28;20118;-84
2023/09/02 03:26:15;;;;;;;41.10;17.13;;;17.90;95.70;;;;;;5028730;28;20025;-84
2023/09/02 03:28:41;;;;;;;35.53;15.07;;;17.90;95.80;;;;;;5030431;28;20025;-84
2023/09/02 03:31:10;;;;;;;35.58;12.82;;;18.00;95.80;;;;;;5054273;28;20419;-84
2023/09/02 03:33:36;;;;;;;36.25;13.18;;;18.10;95.70;;;;;;5041040;28;20040;-84
2023/09/02 03:36:03;;;;;;;43.33;14.02;;;18.10;95.60;;;;;;5049581;28;20025;-84
2023/09/02 03:38:29;;;;;;;57.33;14.50;;;18.10;95.50;;;;;;5052684;28;20043;-84
2023/09/02 03:40:56;;;;;;;33.15;14.88;;;18.10;95.50;;;;;;5046975;28;20495;-84
2023/09/02 03:43:21;;;;;;;44.47;13.93;;;18.10;95.50;;;;;;5043244;28;20024;-84
2023/09/02 03:45:48;;;;;;;87.85;16.52;;;18.10;95.40;;;;;;5057395;28;20036;-85
2023/09/02 03:48:19;;;;;;;59.45;18.45;;;18.10;95.50;;;;;;5052803;28;20056;-85
2023/09/02 03:51:17;;;;;;;81.85;16.05;;;18.00;95.60;;;;;;5057124;28;20113;-84
2023/09/02 03:53:43;;;;;;;48.90;16.23;;;18.00;95.80;;;;;;5053068;28;20088;-84
2023/09/02 03:56:09;;;;;;;110.18;16.25;;;18.00;95.80;;;;;;5051050;28;20040;-84
2023/09/02 03:58:36;;;;;;;63.35;15.45;;;18.00;95.80;;;;;;5052378;28;20033;-84
2023/09/02 04:01:03;;;;;;;152.60;18.77;;;18.00;95.90;;;;;;5061689;28;20077;-84
2023/09/02 04:03:31;;;;;;;44.83;15.90;;;18.00;95.90;;;;;;5053758;28;20032;-85
2023/09/02 04:05:56;;;;;;;46.47;13.88;;;17.90;96.00;;;;;;5049436;28;20120;-85
2023/09/02 04:08:23;;;;;;;37.97;14.55;;;18.00;96.00;;;;;;5052390;28;20594;-84
2023/09/02 04:10:53;;;;;;;66.63;14.05;;;18.00;96.00;;;;;;5049583;28;20125;-85
2023/09/02 04:13:25;;;;;;;52.42;14.20;;;18.00;96.00;;;;;;5052491;28;20057;-85
2023/09/02 04:15:58;;;;;;;29.83;16.52;;;18.10;95.90;;;;;;5048662;28;20081;-84
2023/09/02 04:18:25;;;;;;;58.55;15.32;;;18.00;95.90;;;;;;5051517;28;20044;-84
2023/09/02 04:20:50;;;;;;;114.40;16.70;;;18.00;95.90;;;;;;5051323;28;20024;-84
2023/09/02 04:23:17;;;;;;;66.53;17.08;;;18.10;95.90;;;;;;5041162;28;20359;-84
2023/09/02 04:25:53;;;;;;;55.00;15.93;;;18.00;95.90;;;;;;5055567;28;20067;-84
2023/09/02 04:28:20;;;;;;;48.70;13.23;;;18.00;96.30;;;;;;5066443;28;20178;-84
2023/09/02 04:30:47;;;;;;;71.18;16.83;;;18.00;96.10;;;;;;5055622;28;20020;-84
2023/09/02 04:33:13;;;;;;;60.08;16.42;;;17.90;96.00;;;;;;5051133;28;20064;-84
2023/09/02 04:35:43;;;;;;;63.17;15.43;;;17.90;96.20;;;;;;5056057;28;20192;-84
2023/09/02 04:38:09;;;;;;;44.35;13.38;;;17.90;96.20;;;;;;5053177;28;20033;-84
2023/09/02 04:40:45;;;;;;;65.10;13.90;;;17.90;96.30;;;;;;5053750;28;20081;-84
2023/09/02 04:43:12;;;;;;;71.18;15.75;;;17.90;96.30;;;;;;5048303;28;20032;-84
2023/09/02 04:45:40;;;;;;;38.35;15.85;;;17.90;96.40;;;;;;5048366;28;20032;-84
2023/09/02 04:48:07;;;;;;;58.25;15.35;;;17.90;96.50;;;;;;5035289;28;21797;-84
2023/09/02 04:50:33;;;;;;;35.45;16.10;;;17.90;96.50;;;;;;5051972;28;20085;-84
2023/09/02 04:53:00;;;;;;;29.17;15.68;;;17.90;96.60;;;;;;5055076;28;20159;-84
2023/09/02 04:55:26;;;;;;;54.72;17.27;;;17.90;96.50;;;;;;5027427;28;20104;-84
2023/09/02 04:57:53;;;;;;;36.65;14.10;;;17.90;96.50;;;;;;5049678;28;20044;-84
2023/09/02 05:00:19;;;;;;;46.67;14.40;;;18.00;96.40;;;;;;5052793;28;20029;-84
2023/09/02 05:02:46;;;;;;;32.30;14.07;;;18.00;96.40;;;;;;5050203;28;20080;-85
2023/09/02 05:05:17;;;;;;;30.92;14.57;;;18.00;96.30;;;;;;5033289;28;20032;-85
2023/09/02 05:07:43;;;;;;;33.03;14.77;;;18.00;96.30;;;;;;5051215;28;20116;-85
2023/09/02 05:10:09;;;;;;;40.35;17.77;;;18.10;96.40;;;;;;5050405;28;20035;-85
2023/09/02 05:12:34;;;;;;;28.70;15.23;;;18.00;96.30;;;;;;5051054;28;20120;-85
2023/09/02 05:15:00;;;;;;;35.33;13.57;;;18.10;96.40;;;;;;5037962;28;20025;-85
2023/09/02 05:17:26;;;;;;;20.60;12.43;;;18.10;96.40;;;;;;5039265;28;20135;-85
2023/09/02 05:19:52;;;;;;;31.33;14.05;;;18.20;96.20;;;;;;5050835;28;20112;-84
2023/09/02 05:22:17;;;;;;;34.85;14.13;;;18.20;96.10;;;;;;5055527;28;20021;-84
2023/09/02 05:24:43;;;;;;;29.90;12.98;;;18.30;96.00;;;;;;5051337;28;20036;-84
2023/09/02 05:27:09;;;;;;;38.83;14.35;;;18.20;95.90;;;;;;5055040;28;20111;-85
2023/09/02 05:29:35;;;;;;;24.50;13.52;;;18.20;95.90;;;;;;5046712;28;20099;-85
2023/09/02 05:32:00;;;;;;;22.55;11.70;;;18.30;95.90;;;;;;5052383;28;20024;-87
2023/09/02 05:34:26;;;;;;;26.08;13.65;;;18.40;95.90;;;;;;5046977;28;20537;-88
2023/09/02 05:36:51;;;;;;;26.83;13.15;;;18.40;95.70;;;;;;5051471;28;20058;-86
2023/09/02 05:39:17;;;;;;;26.42;11.40;;;18.50;95.70;;;;;;5052789;28;20027;-86
2023/09/02 05:41:45;;;;;;;25.25;13.27;;;18.50;95.50;;;;;;5048818;28;20021;-86
2023/09/02 05:44:12;;;;;;;31.00;11.30;;;18.50;95.40;;;;;;5029618;28;20384;-84
2023/09/02 05:46:37;;;;;;;50.72;12.27;;;18.50;95.40;;;;;;5050513;28;20097;-83
2023/09/02 05:49:03;;;;;;;43.58;11.50;;;18.50;95.20;;;;;;5048487;28;20025;-83
2023/09/02 05:51:29;;;;;;;29.63;10.85;;;18.50;95.20;;;;;;5033163;28;20051;-83
2023/09/02 05:53:55;;;;;;;83.05;15.20;;;18.50;95.20;;;;;;5030899;28;20025;-83
2023/09/02 05:56:21;;;;;;;31.02;11.88;;;18.50;95.20;;;;;;5030623;28;20055;-83
2023/09/02 05:58:46;;;;;;;34.03;12.93;;;18.40;95.20;;;;;;5050678;28;20411;-83
2023/09/02 06:01:12;;;;;;;21.42;10.52;;;18.40;95.40;;;;;;5048131;28;20160;-84
2023/09/02 06:03:37;;;;;;;22.45;11.38;;;18.30;95.40;;;;;;5050397;28;20040;-83
2023/09/02 06:06:10;;;;;;;26.13;10.68;;;18.40;95.40;;;;;;5049818;28;20523;-83
2023/09/02 06:08:36;;;;;;;28.52;10.93;;;18.50;95.40;;;;;;5050429;28;20033;-82
2023/09/02 06:11:03;;;;;;;28.58;11.90;;;18.50;95.30;;;;;;5033256;28;20483;-82
2023/09/02 06:13:29;;;;;;;24.08;8.85;;;18.50;95.30;;;;;;5046376;28;20036;-84
2023/09/02 06:16:02;;;;;;;70.47;11.80;;;18.50;95.30;;;;;;5049176;28;20400;-83
2023/09/02 06:18:29;;;;;;;32.85;13.15;;;18.50;95.30;;;;;;5043534;28;20043;-83
2023/09/02 06:20:55;;;;;;;17.30;11.55;;;18.50;95.30;;;;;;5047850;28;20021;-82
2023/09/02 06:23:25;;;;;;;30.48;12.20;;;18.50;95.40;;;;;;5031005;28;20407;-83
2023/09/02 06:25:58;;;;;;;19.73;12.45;;;18.50;95.30;;;;;;5048158;28;20511;-82
2023/09/02 06:28:24;;;;;;;22.98;12.45;;;18.50;95.30;;;;;;5048640;28;20028;-83
2023/09/02 06:30:50;;;;;;;28.55;11.77;;;18.60;95.30;;;;;;5049558;28;20536;-83
2023/09/02 06:33:17;;;;;;;41.50;13.50;;;18.60;95.20;;;;;;5047384;28;20027;-83
2023/09/02 06:35:43;;;;;;;20.75;11.43;;;18.50;95.20;;;;;;5047926;28;20083;-83
2023/09/02 06:38:08;;;;;;;28.80;12.18;;;18.40;95.30;;;;;;5047480;28;20068;-82
2023/09/02 06:40:35;;;;;;;32.38;14.02;;;18.30;95.40;;;;;;5046827;28;20571;-83
2023/09/02 06:43:01;;;;;;;29.70;11.25;;;18.40;95.50;;;;;;5048283;28;20056;-82
2023/09/02 06:45:26;;;;;;;26.50;11.52;;;18.40;95.60;;;;;;5028527;28;20026;-84
2023/09/02 06:47:52;;;;;;;19.90;11.75;;;18.50;95.50;;;;;;5047416;28;20086;-82
2023/09/02 06:50:18;;;;;;;26.25;10.63;;;18.50;95.40;;;;;;5046628;28;20028;-83
2023/09/02 06:52:43;;;;;;;16.45;9.88;;;18.50;95.30;;;;;;5039387;28;20418;-82
2023/09/02 06:55:09;;;;;;;17.98;10.48;;;18.60;95.20;;;;;;5046459;28;20135;-83
2023/09/02 06:57:34;;;;;;;28.27;11.80;;;18.60;95.40;;;;;;5046979;28;20033;-83
2023/09/02 07:00:00;;;;;;;18.88;12.57;;;18.60;95.10;;;;;;5047845;28;20029;-83
2023/09/02 07:02:26;;;;;;;19.00;11.27;;;18.50;95.20;;;;;;5026841;28;20040;-83
2023/09/02 07:04:51;;;;;;;24.02;12.00;;;18.50;95.30;;;;;;5045394;28;20459;-83
2023/09/02 07:07:17;;;;;;;15.35;11.27;;;18.60;95.20;;;;;;5046385;28;20032;-83
2023/09/02 07:09:42;;;;;;;18.20;11.57;;;18.70;95.20;;;;;;5047595;28;20075;-83
2023/09/02 07:12:08;;;;;;;15.85;11.55;;;18.70;95.10;;;;;;5026012;28;20158;-83
2023/09/02 07:14:34;;;;;;;16.25;10.18;;;18.80;94.90;;;;;;5042276;28;20028;-82
2023/09/02 07:16:59;;;;;;;12.57;9.45;;;18.80;94.80;;;;;;5030151;28;20037;-82
2023/09/02 07:19:25;;;;;;;14.75;11.13;;;18.80;94.70;;;;;;5029455;28;20025;-82
2023/09/02 07:21:51;;;;;;;14.80;11.05;;;18.80;94.70;;;;;;5045513;28;20068;-82
2023/09/02 07:24:16;;;;;;;14.18;10.70;;;18.80;94.90;;;;;;5044721;28;20116;-83
2023/09/02 07:26:42;;;;;;;13.15;10.20;;;18.80;94.80;;;;;;5044763;28;20060;-83
2023/09/02 07:29:08;;;;;;;11.00;8.48;;;18.90;94.80;;;;;;5047128;28;20017;-82
2023/09/02 07:31:33;;;;;;;14.73;9.82;;;19.00;94.70;;;;;;5047957;28;20029;-82
2023/09/02 07:34:00;;;;;;;11.40;9.30;;;19.00;94.60;;;;;;5043502;28;20041;-83
2023/09/02 07:36:26;;;;;;;14.07;10.07;;;19.00;94.50;;;;;;5047203;28;20021;-82
2023/09/02 07:38:51;;;;;;;13.57;9.65;;;19.10;94.50;;;;;;5046577;28;20376;-83
2023/09/02 07:41:17;;;;;;;15.80;10.68;;;19.10;94.40;;;;;;5045078;28;20071;-83
2023/09/02 07:43:43;;;;;;;15.00;9.40;;;19.10;94.40;;;;;;5045939;28;20189;-83
2023/09/02 07:46:11;;;;;;;16.88;12.05;;;19.20;94.30;;;;;;5028533;28;20387;-84
2023/09/02 07:48:37;;;;;;;14.25;10.52;;;19.20;94.20;;;;;;5049563;28;20028;-83
2023/09/02 07:51:02;;;;;;;15.70;11.80;;;19.20;94.40;;;;;;5027310;28;20600;-83
2023/09/02 07:53:29;;;;;;;16.65;12.68;;;19.20;94.30;;;;;;5044581;28;20549;-83
2023/09/02 07:55:54;;;;;;;14.68;11.48;;;19.30;94.50;;;;;;5043174;28;20633;-84
2023/09/02 07:58:20;;;;;;;14.73;10.35;;;19.40;94.20;;;;;;5046877;28;20075;-85
2023/09/02 08:00:45;;;;;;;16.55;11.48;;;19.40;94.10;;;;;;5058070;28;20040;-84
2023/09/02 08:03:11;;;;;;;16.30;10.98;;;19.40;94.10;;;;;;5046204;28;20046;-84
2023/09/02 08:05:41;;;;;;;15.38;11.32;;;19.50;94.00;;;;;;5044916;28;20104;-84
2023/09/02 08:08:07;;;;;;;12.95;10.05;;;19.50;93.90;;;;;;5028065;28;20028;-84
2023/09/02 08:10:33;;;;;;;14.38;10.95;;;19.50;93.80;;;;;;5059009;28;20025;-84
2023/09/02 08:13:00;;;;;;;16.05;10.40;;;19.40;93.70;;;;;;5043043;28;20474;-84
2023/09/02 08:15:25;;;;;;;16.00;11.35;;;19.50;93.80;;;;;;5026695;28;20068;-85
2023/09/02 08:17:51;;;;;;;15.10;10.77;;;19.40;93.70;;;;;;5027406;28;20116;-85
2023/09/02 08:20:17;;;;;;;14.85;11.05;;;19.50;93.70;;;;;;5044442;28;20479;-85
2023/09/02 08:22:43;;;;;;;15.23;10.88;;;19.50;93.70;;;;;;5046118;28;20040;-85
2023/09/02 08:25:09;;;;;;;14.02;10.27;;;19.50;93.70;;;;;;5049687;28;20368;-85
2023/09/02 08:27:35;;;;;;;14.63;10.82;;;19.50;93.70;;;;;;5048276;28;20124;-83
2023/09/02 08:30:04;;;;;;;17.58;12.55;;;19.50;93.70;;;;;;5047857;28;20166;-83
2023/09/02 08:32:31;;;;;;;15.63;11.95;;;19.60;93.60;;;;;;5041910;28;20051;-84
2023/09/02 08:34:56;;;;;;;15.07;10.93;;;19.70;93.50;;;;;;5029182;28;20025;-83
2023/09/02 08:37:22;;;;;;;14.73;10.60;;;19.70;93.50;;;;;;5043984;28;20049;-84
2023/09/02 08:39:47;;;;;;;15.27;10.32;;;19.70;93.50;;;;;;5049171;28;20463;-84
2023/09/02 08:42:17;;;;;;;10.60;8.35;;;19.70;93.50;;;;;;5048862;28;20377;-85
2023/09/02 08:44:45;;;;;;;17.95;14.27;;;19.80;93.40;;;;;;5035127;28;20176;-84
2023/09/02 08:47:11;;;;;;;16.63;12.65;;;19.80;93.20;;;;;;5044906;28;20120;-84
2023/09/02 08:49:38;;;;;;;15.50;11.95;;;19.70;93.30;;;;;;5047824;28;20021;-85
2023/09/02 08:52:05;;;;;;;16.17;11.40;;;19.80;93.30;;;;;;5048424;28;20031;-85
2023/09/02 08:54:32;;;;;;;17.98;12.65;;;19.80;93.30;;;;;;5047415;28;20031;-86
2023/09/02 08:56:58;;;;;;;14.25;10.68;;;19.80;93.40;;;;;;5049603;28;20048;-85
2023/09/02 08:59:25;;;;;;;19.95;13.85;;;19.90;93.30;;;;;;5048477;28;20016;-84
2023/09/02 09:01:52;;;;;;;20.90;14.63;;;19.90;93.20;;;;;;5044820;28;20106;-84
2023/09/02 09:04:18;;;;;;;17.88;12.15;;;19.80;93.20;;;;;;5048520;28;20116;-84
2023/09/02 09:06:44;;;;;;;16.42;12.75;;;19.90;93.30;;;;;;5046761;28;20100;-84
2023/09/02 09:09:11;;;;;;;14.63;11.45;;;20.00;93.30;;;;;;5046128;28;20519;-84
2023/09/02 09:11:42;;;;;;;14.00;10.55;;;20.10;93.20;;;;;;5045845;28;20059;-84
2023/09/02 09:14:22;;;;;;;15.07;10.93;;;20.30;92.90;;;;;;5029000;28;20108;-85
2023/09/02 09:16:53;;;;;;;14.30;10.32;;;20.40;92.80;;;;;;5042618;28;20035;-85
2023/09/02 09:19:21;;;;;;;14.32;11.13;;;20.50;92.50;;;;;;5049370;28;20039;-85
2023/09/02 09:21:47;;;;;;;13.38;10.68;;;20.60;92.40;;;;;;5052482;28;20510;-85
2023/09/02 09:24:13;;;;;;;11.95;9.00;;;20.60;92.20;;;;;;5049124;28;20025;-85
2023/09/02 09:26:40;;;;;;;14.68;11.95;;;20.70;92.10;;;;;;5046552;28;20119;-86
2023/09/02 09:29:11;;;;;;;15.73;12.00;;;20.60;92.00;;;;;;5049173;28;20025;-86
2023/09/02 09:31:37;;;;;;;16.03;12.70;;;20.60;92.00;;;;;;5044986;28;20029;-86
2023/09/02 09:34:03;;;;;;;16.23;12.55;;;20.50;91.90;;;;;;5027725;28;20021;-86
2023/09/02 09:36:31;;;;;;;15.30;12.07;;;20.60;92.00;;;;;;5042330;28;20547;-86
2023/09/02 09:38:58;;;;;;;17.13;12.63;;;20.60;92.00;;;;;;5042631;28;20037;-86
2023/09/02 09:41:25;;;;;;;14.90;11.15;;;20.60;91.90;;;;;;5041873;28;20431;-86
2023/09/02 09:44:16;;;;;;;13.65;10.50;;;20.60;91.90;;;;;;5027108;28;20919;-87
2023/09/02 09:46:51;;;;;;;11.25;8.75;;;20.70;91.80;;;;;;5042897;28;20754;-85
2023/09/02 09:49:22;;;;;;;12.13;9.88;;;20.80;91.70;;;;;;5021926;28;20181;-85
2023/09/02 09:51:50;;;;;;;;;;;20.80;91.70;;;;;;5044671;28;20044;-84
2023/09/02 09:54:15;;;;;;;13.10;9.88;;;20.90;91.70;;;;;;5042733;28;20352;-85
2023/09/02 09:56:44;;;;;;;13.23;10.30;;;20.90;91.60;;;;;;5043441;28;20064;-86
2023/09/02 09:59:10;;;;;;;12.80;10.57;;;21.00;91.60;;;;;;5042586;28;21921;-87
2023/09/02 10:01:37;;;;;;;11.80;9.38;;;21.00;91.40;;;;;;5043087;28;20025;-87
2023/09/02 10:04:09;;;;;;;10.95;9.07;;;21.00;91.30;;;;;;5043443;28;20032;-86
2023/09/02 10:06:38;;;;;;;9.77;8.13;;;21.10;91.20;;;;;;5043595;28;20021;-87
2023/09/02 10:09:04;;;;;;;9.93;8.50;;;21.20;91.00;;;;;;5042202;28;20028;-87
2023/09/02 10:11:29;;;;;;;11.55;9.07;;;21.40;90.80;;;;;;5043166;28;20376;-87
2023/09/02 10:13:57;;;;;;;12.60;10.32;;;21.50;90.50;;;;;;5025182;28;20080;-86
2023/09/02 10:16:24;;;;;;;11.63;10.25;;;21.60;90.30;;;;;;5043184;28;20021;-86
2023/09/02 10:18:50;;;;;;;10.93;9.15;;;21.60;90.10;;;;;;5043471;28;20071;-86
2023/09/02 10:21:17;;;;;;;11.18;9.25;;;21.60;89.90;;;;;;5024957;28;20048;-87
2023/09/02 10:23:51;;;;;;;11.05;8.57;;;21.60;89.60;;;;;;5043561;28;20037;-87
2023/09/02 10:26:43;;;;;;;10.85;9.27;;;21.70;89.50;;;;;;5022682;28;20114;-86
2023/09/02 10:29:12;;;;;;;10.82;9.25;;;21.70;89.50;;;;;;5040768;28;20037;-86
2023/09/02 10:31:45;;;;;;;9.73;8.32;;;21.80;89.40;;;;;;5042215;28;20123;-86
2023/09/02 10:34:18;;;;;;;9.93;8.50;;;21.90;89.20;;;;;;5058502;28;20032;-87
2023/09/02 10:36:56;;;;;;;11.00;9.30;;;21.90;88.90;;;;;;5042815;28;20442;-86
2023/09/02 10:39:31;;;;;;;10.82;8.88;;;22.00;88.70;;;;;;5044402;28;20541;-87
2023/09/02 10:42:00;;;;;;;13.82;10.98;;;22.10;88.60;;;;;;5043579;28;20628;-87
2023/09/02 10:44:26;;;;;;;12.27;9.20;;;22.00;87.90;;;;;;5040007;28;20021;-87
2023/09/02 10:46:53;;;;;;;10.00;8.25;;;22.00;88.00;;;;;;5044815;28;20043;-87
2023/09/02 10:49:20;;;;;;;10.77;9.40;;;22.20;88.00;;;;;;5044145;28;20029;-85
2023/09/02 10:51:46;;;;;;;11.65;8.73;;;22.30;87.40;;;;;;5043319;28;20056;-87
2023/09/02 10:54:12;;;;;;;9.80;8.35;;;22.30;87.20;;;;;;5043716;28;20032;-86
2023/09/02 10:56:37;;;;;;;9.02;7.80;;;22.40;87.00;;;;;;5023032;28;20024;-86
2023/09/02 10:59:07;;;;;;;8.55;7.57;;;22.40;86.80;;;;;;5045223;28;20536;-87
2023/09/02 11:01:47;;;;;;;8.15;6.78;;;22.50;86.50;;;;;;5026424;28;20090;-87
2023/09/02 11:04:13;;;;;;;8.40;7.30;;;22.60;86.40;;;;;;5042775;28;20021;-86
2023/09/02 11:07:16;;;;;;;9.20;7.53;;;22.70;85.70;;;;;;5026871;28;20029;-86
2023/09/02 11:09:53;;;;;;;10.13;8.60;;;22.80;85.30;;;;;;5041755;28;20108;-86
2023/09/02 11:12:19;;;;;;;9.07;7.60;;;23.00;84.50;;;;;;5027533;28;20052;-87
2023/09/02 11:15:11;;;;;;;10.10;8.70;;;23.00;84.00;;;;;;5046901;28;20021;-86
2023/09/02 11:17:38;;;;;;;9.57;8.15;;;22.90;83.00;;;;;;5049268;28;20021;-87
2023/09/02 11:20:12;;;;;;;8.40;7.43;;;22.80;83.20;;;;;;5028112;28;20325;-86
2023/09/02 11:22:57;;;;;;;7.40;6.40;;;22.70;83.50;;;;;;5044109;28;20115;-87
2023/09/02 11:25:39;;;;;;;8.50;7.60;;;22.70;83.80;;;;;;5029902;28;20029;-87
2023/09/02 11:28:06;;;;;;;7.63;6.82;;;22.60;83.80;;;;;;5031529;28;20025;-87
2023/09/02 11:30:37;;;;;;;7.35;6.43;;;22.60;83.80;;;;;;5025030;28;20025;-85
2023/09/02 11:33:03;;;;;;;;;;;22.60;83.80;;;;;;5046543;28;20025;-87
2023/09/02 11:35:34;;;;;;;7.68;6.53;;;22.50;83.60;;;;;;5042652;28;19969;-86
2023/09/02 11:38:01;;;;;;;6.82;6.13;;;22.50;83.60;;;;;;5041080;28;20045;-86
2023/09/02 11:40:27;;;;;;;7.00;5.65;;;22.60;83.60;;;;;;5042968;28;20490;-87
2023/09/02 11:43:00;;;;;;;6.15;5.22;;;22.60;83.20;;;;;;5041091;28;20825;-87
2023/09/02 11:45:29;;;;;;;4.97;4.47;;;22.80;82.80;;;;;;5042990;28;20037;-88
2023/09/02 11:47:54;;;;;;;5.07;4.57;;;23.00;82.30;;;;;;5042687;28;20025;-87
2023/09/02 11:50:22;;;;;;;5.32;4.82;;;23.20;81.80;;;;;;5047139;28;20058;-87
2023/09/02 11:52:55;;;;;;;4.40;4.00;;;23.20;81.20;;;;;;5029542;28;20453;-87
2023/09/02 11:55:22;;;;;;;4.10;3.70;;;23.30;81.50;;;;;;5045362;28;20533;-86
2023/09/02 11:57:48;;;;;;;4.20;3.80;;;23.50;81.20;;;;;;5028595;28;20375;-87
2023/09/02 12:00:24;;;;;;;3.85;3.55;;;23.60;79.90;;;;;;5031635;28;20040;-87
2023/09/02 12:02:53;;;;;;;4.88;4.32;;;23.80;79.40;;;;;;5047463;28;20107;-87
2023/09/02 12:05:18;;;;;;;4.13;3.72;;;23.70;78.30;;;;;;5029326;28;20020;-87
2023/09/02 12:07:45;;;;;;;7.20;6.35;;;23.80;78.40;;;;;;5031848;28;20033;-87
2023/09/02 12:10:16;;;;;;;7.95;6.85;;;23.70;77.50;;;;;;5047593;28;20036;-87
2023/09/02 12:12:47;;;;;;;6.78;5.70;;;23.50;77.20;;;;;;5027388;28;20035;-87
2023/09/02 12:15:18;;;;;;;8.30;7.20;;;23.40;77.50;;;;;;5045127;28;20039;-87
2023/09/02 12:17:44;;;;;;;6.65;5.03;;;23.20;77.50;;;;;;5044915;28;20076;-86
2023/09/02 12:20:15;;;;;;;7.07;5.88;;;23.20;78.20;;;;;;5032392;28;20048;-85
2023/09/02 12:22:42;;;;;;;6.10;5.30;;;23.20;77.90;;;;;;5046825;28;20041;-86
2023/09/02 12:25:17;;;;;;;5.82;5.10;;;23.10;77.70;;;;;;5044697;28;20398;-86
2023/09/02 12:27:44;;;;;;;6.03;5.15;;;23.30;77.80;;;;;;5046641;28;20589;-86
2023/09/02 12:30:23;;;;;;;5.72;4.90;;;23.40;77.90;;;;;;5048381;28;20025;-86
2023/09/02 12:32:49;;;;;;;5.38;4.88;;;23.40;77.40;;;;;;5045132;28;20033;-86
2023/09/02 12:35:14;;;;;;;4.70;4.28;;;23.50;77.70;;;;;;5043294;28;20066;-86